Time;durP1;ratioP1;P1;durP2;ratioP2;P2;SDS_P1;SDS_P2;PMS_P1;PMS_P2;Temp;Humidity;BMP_temperature;BMP_pressure;BME280_temperature;BME280_humidity;BME280_pressure;Samples;Min_cycle;Max_cycle;Signal;HPM_P1;HPM_P2
2022/10/14 00:01:06;;;;;;;6.10;3.15;;;;;;;12.75;100.00;100565.47;5133820;27;20019;-76
2022/10/14 00:03:32;;;;;;;5.88;3.00;;;;;;;12.50;100.00;100555.09;5133830;27;20023;-76
2022/10/14 00:05:58;;;;;;;4.45;2.85;;;;;;;12.99;100.00;100623.50;5133728;27;20565;-76
2022/10/14 00:08:26;;;;;;;7.00;3.05;;;;;;;12.50;100.00;100552.53;5115663;27;20508;-76
2022/10/14 00:10:52;;;;;;;6.57;3.30;;;;;;;13.38;100.00;100611.34;5134484;27;20034;-76
2022/10/14 00:13:17;;;;;;;9.27;3.95;;;;;;;13.07;100.00;100605.44;5133881;27;20114;-76
2022/10/14 00:15:43;;;;;;;7.82;4.03;;;;;;;13.35;100.00;100617.38;5133596;27;20108;-75
2022/10/14 00:18:09;;;;;;;9.35;3.67;;;;;;;13.17;100.00;100602.59;5133190;27;20038;-74
2022/10/14 00:20:39;;;;;;;11.18;4.20;;;;;;;13.24;100.00;100623.66;5114768;27;20552;-74
2022/10/14 00:23:14;;;;;;;7.53;4.00;;;;;;;12.79;100.00;100544.94;5132694;27;20026;-74
2022/10/14 00:25:39;;;;;;;9.57;3.85;;;;;;;12.93;100.00;100580.28;5133083;27;20473;-76
2022/10/14 00:28:05;;;;;;;10.07;3.65;;;;;;;13.33;100.00;100606.38;5114410;27;20073;-73
2022/10/14 00:30:30;;;;;;;7.45;3.60;;;;;;;13.62;100.00;100618.28;5114258;27;20081;-74
2022/10/14 00:33:03;;;;;;;10.27;3.88;;;;;;;13.29;100.00;100624.41;5114768;27;20477;-74
2022/10/14 00:35:30;;;;;;;7.68;3.40;;;;;;;13.03;100.00;100579.16;5132809;27;20025;-75
2022/10/14 00:37:56;;;;;;;8.23;3.45;;;;;;;13.09;100.00;100619.84;5132845;27;20035;-74
2022/10/14 00:40:21;;;;;;;11.55;3.35;;;;;;;13.07;100.00;100611.41;5132760;27;20351;-74
2022/10/14 00:42:47;;;;;;;7.53;2.80;;;;;;;13.55;100.00;100599.75;5100932;28;20126;-74
2022/10/14 00:45:19;;;;;;;7.25;2.90;;;;;;;13.70;100.00;100608.69;5110762;28;20084;-74
2022/10/14 00:47:44;;;;;;;8.30;2.50;;;;;;;13.55;100.00;100611.69;5093981;28;20040;-75
2022/10/14 00:50:11;;;;;;;4.97;2.25;;;;;;;13.56;100.00;100610.81;5112408;28;20117;-74
2022/10/14 00:52:37;;;;;;;4.40;1.88;;;;;;;13.22;100.00;100526.69;5094051;28;20409;-74
2022/10/14 00:55:09;;;;;;;2.35;1.25;;;;;;;12.81;100.00;100478.56;5112173;28;20095;-74
2022/10/14 00:57:39;;;;;;;4.82;1.10;;;;;;;13.28;100.00;100564.81;5112645;28;20032;-75
2022/10/14 01:00:09;;;;;;;2.35;1.30;;;;;;;13.50;100.00;100529.25;5094128;28;20047;-75
2022/10/14 01:02:34;;;;;;;2.75;1.17;;;;;;;13.96;100.00;100582.31;5112332;28;20032;-76
2022/10/14 01:05:01;;;;;;;5.03;1.30;;;;;;;13.35;100.00;100530.53;5093935;28;20401;-75
2022/10/14 01:07:36;;;;;;;3.72;0.90;;;;;;;13.84;100.00;100596.31;5094538;28;20024;-78
2022/10/14 01:10:23;;;;;;;2.20;0.85;;;;;;;13.42;100.00;100589.94;5112814;28;20114;-75
2022/10/14 01:12:57;;;;;;;2.22;1.00;;;;;;;13.56;100.00;100578.44;5094570;28;20507;-76
2022/10/14 01:15:42;;;;;;;2.85;1.02;;;;;;;13.60;100.00;100579.19;5094553;28;20035;-75
2022/10/14 01:18:16;;;;;;;2.30;1.00;;;;;;;13.66;100.00;100579.00;5112779;28;20032;-76
2022/10/14 01:20:51;;;;;;;3.53;0.90;;;;;;;13.63;100.00;100577.34;5112854;28;20023;-78
2022/10/14 01:23:34;;;;;;;2.88;1.10;;;;;;;13.79;100.00;100570.03;5112642;28;20148;-77
2022/10/14 01:26:48;;;;;;;1.88;1.08;;;;;;;13.44;100.00;100555.81;5112971;28;20478;-76
2022/10/14 01:29:26;;;;;;;2.53;1.02;;;;;;;13.61;100.00;100579.13;5089464;28;20130;-76
2022/10/14 01:32:01;;;;;;;2.85;1.15;;;;;;;13.39;100.00;100519.34;5093436;28;20126;-76
2022/10/14 01:34:33;;;;;;;3.13;1.00;;;;;;;13.65;100.00;100578.16;5113476;28;20085;-77
2022/10/14 01:37:05;;;;;;;2.78;0.98;;;;;;;13.53;100.00;100559.78;5098108;28;20122;-77
2022/10/14 01:39:41;;;;;;;5.90;1.20;;;;;;;13.05;100.00;100504.22;5116324;28;20091;-76
2022/10/14 01:42:27;;;;;;;3.97;1.25;;;;;;;13.22;100.00;100575.22;5098118;28;20103;-80
2022/10/14 01:45:00;;;;;;;2.95;1.10;;;;;;;12.86;100.00;100492.00;5116527;28;20020;-78
2022/10/14 01:47:29;;;;;;;2.33;1.15;;;;;;;12.59;100.00;100485.13;5116151;28;20039;-76
2022/10/14 01:50:06;;;;;;;4.88;1.10;;;;;;;13.25;100.00;100541.91;5095527;28;20023;-76
2022/10/14 01:52:37;;;;;;;3.85;1.00;;;;;;;12.71;100.00;100487.34;5116196;28;20110;-76
2022/10/14 01:55:08;;;;;;;3.47;1.00;;;;;;;12.50;100.00;100472.66;5098044;28;20089;-76
2022/10/14 01:57:37;;;;;;;4.57;1.20;;;;;;;12.92;100.00;100530.94;5116116;28;20020;-77
2022/10/14 02:00:04;;;;;;;2.45;1.10;;;;;;;12.23;100.00;100423.25;5116182;28;20474;-77
2022/10/14 02:02:29;;;;;;;2.78;1.27;;;;;;;12.50;100.00;100475.22;5098087;28;20031;-77
2022/10/14 02:04:55;;;;;;;3.38;1.15;;;;;;;12.52;100.00;100529.56;5115237;28;20030;-77
2022/10/14 02:07:32;;;;;;;2.05;0.90;;;;;;;12.63;100.00;100520.72;5115680;28;20028;-77
2022/10/14 02:10:25;;;;;;;5.45;1.35;;;;;;;12.60;100.00;100508.03;5098004;28;20031;-76
2022/10/14 02:13:15;;;;;;;3.63;1.13;;;;;;;12.51;100.00;100548.28;5115576;28;20500;-76
2022/10/14 02:16:19;;;;;;;2.78;1.00;;;;;;;12.63;100.00;100540.28;5115739;28;20047;-76
2022/10/14 02:19:02;;;;;;;3.15;1.30;;;;;;;12.41;100.00;100542.59;5115233;28;20023;-76
2022/10/14 02:21:48;;;;;;;4.57;1.48;;;;;;;12.65;100.00;100536.00;5096993;28;20147;-76
2022/10/14 02:24:25;;;;;;;3.60;1.40;;;;;;;12.62;100.00;100520.75;5097521;28;20042;-75
2022/10/14 02:26:55;;;;;;;3.50;1.42;;;;;;;12.31;100.00;100448.53;5115212;28;20140;-76
2022/10/14 02:29:21;;;;;;;4.85;1.60;;;;;;;12.28;100.00;100464.72;5096197;28;20027;-76
2022/10/14 02:31:49;;;;;;;3.97;1.73;;;;;;;12.67;100.00;100518.94;5100049;28;20051;-75
2022/10/14 02:34:19;;;;;;;4.57;1.75;;;;;;;12.53;100.00;100526.97;5094185;28;20036;-77
2022/10/14 02:36:46;;;;;;;7.20;1.85;;;;;;;12.51;100.00;100515.97;5094650;28;20024;-76
2022/10/14 02:39:17;;;;;;;4.70;2.03;;;;;;;12.46;100.00;100517.78;5094709;28;20024;-75
2022/10/14 02:41:42;;;;;;;5.97;2.60;;;;;;;12.33;100.00;100507.97;5076410;28;20452;-77
2022/10/14 02:44:08;;;;;;;4.88;2.80;;;;;;;12.38;100.00;100521.44;5094444;28;20116;-75
2022/10/14 02:46:34;;;;;;;7.25;2.83;;;;;;;12.11;100.00;100441.41;5093813;28;20028;-76
2022/10/14 02:49:09;;;;;;;5.13;2.50;;;;;;;12.68;100.00;100530.78;5076647;28;20031;-76
2022/10/14 02:51:34;;;;;;;3.45;1.85;;;;;;;12.44;100.00;100522.09;5094555;28;20036;-77
2022/10/14 02:54:01;;;;;;;3.28;1.60;;;;;;;12.22;100.00;100467.47;5094748;28;20551;-76
2022/10/14 02:56:26;;;;;;;4.57;1.60;;;;;;;12.06;100.00;100435.63;5094356;28;20035;-76
2022/10/14 02:58:52;;;;;;;6.07;1.38;;;;;;;12.23;100.00;100464.03;5094499;28;20474;-76
2022/10/14 03:01:17;;;;;;;6.60;1.38;;;;;;;12.43;100.00;100517.88;5094846;28;20024;-79
2022/10/14 03:03:43;;;;;;;8.65;1.20;;;;;;;12.25;100.00;100515.81;5076802;28;20031;-78
2022/10/14 03:06:08;;;;;;;4.00;1.83;;;;;;;12.62;100.00;100516.50;5094640;28;20038;-78
2022/10/14 03:08:34;;;;;;;5.85;2.20;;;;;;;12.30;100.00;100508.06;5094220;28;20574;-76
2022/10/14 03:10:59;;;;;;;12.13;2.60;;;;;;;12.59;100.00;100514.03;5094403;28;20028;-77
2022/10/14 03:13:24;;;;;;;7.80;2.92;;;;;;;12.16;100.00;100460.81;5076625;28;20024;-75
2022/10/14 03:15:50;;;;;;;8.23;2.75;;;;;;;12.56;100.00;100513.28;5093894;28;20032;-76
2022/10/14 03:18:15;;;;;;;6.05;2.40;;;;;;;11.97;100.00;100439.25;5105868;28;20028;-76
2022/10/14 03:20:45;;;;;;;6.55;2.50;;;;;;;12.07;100.00;100452.56;5114472;28;20433;-76
2022/10/14 03:23:11;;;;;;;5.63;2.30;;;;;;;12.04;100.00;100438.19;5114382;28;20104;-76
2022/10/14 03:25:42;;;;;;;3.33;1.92;;;;;;;12.39;100.00;100497.59;5114133;28;20027;-75
2022/10/14 03:28:08;;;;;;;3.55;2.10;;;;;;;12.05;100.00;100452.63;5114429;28;20038;-76
2022/10/14 03:30:33;;;;;;;6.47;2.10;;;;;;;12.54;100.00;100500.56;5114916;27;20023;-77
2022/10/14 03:32:59;;;;;;;5.35;1.90;;;;;;;14.00;100.00;100499.50;5116166;27;20027;-76
2022/10/14 03:35:24;;;;;;;2.75;1.38;;;;;;;12.66;100.00;100441.56;5134411;27;20122;-74
2022/10/14 03:37:52;;;;;;;4.30;1.63;;;;;;;12.40;100.00;100492.44;5134364;27;20027;-74
2022/10/14 03:40:17;;;;;;;3.47;1.60;;;;;;;12.52;100.00;100514.25;5134316;27;20500;-77
2022/10/14 03:42:42;;;;;;;4.63;1.60;;;;;;;12.49;100.00;100504.97;5133842;27;20027;-77
2022/10/14 03:45:08;;;;;;;5.10;1.58;;;;;;;12.34;100.00;100497.72;5133186;27;20118;-74
2022/10/14 03:47:34;;;;;;;3.35;1.80;;;;;;;11.70;100.00;100418.75;5115574;27;20034;-77
2022/10/14 03:49:59;;;;;;;3.80;1.67;;;;;;;12.41;100.00;100499.25;5134051;27;20023;-76
2022/10/14 03:52:25;;;;;;;2.67;1.52;;;;;;;12.17;100.00;100503.28;5133979;27;20027;-78
2022/10/14 03:54:50;;;;;;;5.47;1.50;;;;;;;12.42;100.00;100492.44;5115771;27;20038;-76
2022/10/14 03:57:16;;;;;;;2.47;1.20;;;;;;;12.18;100.00;100445.50;5133145;27;20031;-76
2022/10/14 03:59:41;;;;;;;4.90;1.30;;;;;;;11.85;100.00;100449.75;5133723;27;20106;-77
2022/10/14 04:02:15;;;;;;;4.88;1.10;;;;;;;11.61;100.00;100386.66;5134117;27;20034;-75
2022/10/14 04:04:40;;;;;;;3.03;1.08;;;;;;;12.07;100.00;100506.09;5133564;27;20111;-73
2022/10/14 04:07:06;;;;;;;5.07;1.33;;;;;;;11.90;100.00;100439.44;5133327;27;20471;-74
2022/10/14 04:09:31;;;;;;;4.10;1.27;;;;;;;12.14;100.00;100503.34;5108256;28;20031;-74
2022/10/14 04:11:57;;;;;;;3.95;1.30;;;;;;;12.27;100.00;100491.13;5112287;28;20028;-75
2022/10/14 04:14:23;;;;;;;11.10;2.03;;;;;;;12.34;100.00;100441.63;5112370;28;20023;-74
2022/10/14 04:16:48;;;;;;;12.15;2.40;;;;;;;14.83;100.00;100435.13;5112330;28;20130;-74
2022/10/14 04:19:14;;;;;;;8.20;2.20;;;;;;;13.26;100.00;100381.88;5112294;28;20122;-74
2022/10/14 04:21:39;;;;;;;9.75;2.50;;;;;;;12.52;100.00;100486.22;5112012;28;20024;-74
2022/10/14 04:24:05;;;;;;;5.63;2.90;;;;;;;11.86;100.00;100441.25;5112094;28;20096;-74
2022/10/14 04:26:30;;;;;;;11.75;2.75;;;;;;;11.47;100.00;100413.38;5112154;28;20035;-72
2022/10/14 04:28:56;;;;;;;7.93;3.03;;;;;;;11.87;100.00;100455.66;5106764;28;20028;-74
2022/10/14 04:31:21;;;;;;;6.50;3.80;;;;;;;11.70;100.00;100454.41;5100012;28;20039;-71
2022/10/14 04:33:47;;;;;;;7.07;3.97;;;;;;;11.82;100.00;100459.19;5093511;28;20020;-73
2022/10/14 04:36:13;;;;;;;11.10;3.67;;;;;;;12.09;100.00;100484.81;5111976;28;20031;-72
2022/10/14 04:38:38;;;;;;;7.72;3.35;;;;;;;11.82;100.00;100429.47;5093590;28;20488;-73
2022/10/14 04:41:04;;;;;;;7.88;3.70;;;;;;;11.59;100.00;100435.97;5093605;28;20485;-73
2022/10/14 04:43:29;;;;;;;14.18;4.90;;;;;;;12.04;100.00;100476.41;5093189;28;20023;-76
2022/10/14 04:45:54;;;;;;;10.48;5.03;;;;;;;11.88;100.00;100492.16;5112087;28;20508;-75
2022/10/14 04:48:20;;;;;;;26.27;13.43;;;;;;;11.91;100.00;100492.06;5112847;28;20032;-76
2022/10/14 04:50:50;;;;;;;28.85;15.07;;;;;;;11.99;100.00;100491.00;5094157;28;20050;-74
2022/10/14 04:53:15;;;;;;;25.00;12.77;;;;;;;11.76;100.00;100483.09;5074554;28;20024;-74
2022/10/14 04:55:41;;;;;;;17.60;10.40;;;;;;;11.88;100.00;100482.81;5091651;28;20031;-74
2022/10/14 04:58:08;;;;;;;26.45;15.30;;;;;;;11.95;100.00;100491.13;5091359;28;20028;-74
2022/10/14 05:00:33;;;;;;;24.08;13.68;;;;;;;11.96;100.00;100503.00;5089970;28;20020;-72
2022/10/14 05:02:59;;;;;;;17.63;9.80;;;;;;;12.01;100.00;100458.69;5089308;28;20418;-75
2022/10/14 05:05:24;;;;;;;18.15;7.50;;;;;;;12.14;100.00;100480.41;5088601;28;20040;-73
2022/10/14 05:07:50;;;;;;;14.95;8.18;;;;;;;12.07;100.00;100440.69;5092137;28;20040;-74
2022/10/14 05:10:15;;;;;;;11.85;6.60;;;;;;;12.35;100.00;100439.91;5095256;28;20112;-72
2022/10/14 05:12:41;;;;;;;9.90;4.15;;;;;;;12.64;100.00;100428.00;5095274;28;20515;-73
2022/10/14 05:15:06;;;;;;;5.90;3.30;;;;;;;13.66;100.00;100507.44;5095654;28;20028;-72
2022/10/14 05:17:32;;;;;;;10.07;3.90;;;;;;;14.09;100.00;100494.06;5077407;28;20402;-74
2022/10/14 05:19:57;;;;;;;13.38;4.65;;;;;;;15.59;100.00;100482.50;5095593;28;20038;-75
2022/10/14 05:22:24;;;;;;;16.20;5.82;;;;;;;15.87;100.00;100505.28;5095506;28;20425;-72
2022/10/14 05:24:49;;;;;;;14.20;8.93;;;;;;;17.50;100.00;100459.41;5095503;28;20028;-73
2022/10/14 05:27:15;;;;;;;16.67;9.40;;;;;;;17.68;100.00;100518.50;5095258;28;20017;-72
2022/10/14 05:29:40;;;;;;;19.20;11.48;;;;;;;18.95;100.00;100527.44;5095372;28;20502;-73
2022/10/14 05:32:06;;;;;;;25.40;13.85;;;;;;;19.24;100.00;100529.25;5095326;28;20059;-75
2022/10/14 05:34:31;;;;;;;45.00;22.23;;;;;;;18.90;100.00;100488.19;5077052;28;20472;-75
2022/10/14 05:36:57;;;;;;;30.98;18.27;;;;;;;19.43;100.00;100535.09;5095190;28;20036;-76
2022/10/14 05:39:22;;;;;;;26.95;14.32;;;;;;;19.24;100.00;100494.91;5077103;28;20406;-76
2022/10/14 05:41:48;;;;;;;17.58;9.40;;;;;;;19.16;100.00;100521.13;5095230;28;20171;-73
2022/10/14 05:44:13;;;;;;;15.77;6.93;;;;;;;19.04;100.00;100512.31;5095153;28;20028;-75
2022/10/14 05:46:39;;;;;;;19.65;7.03;;;;;;;19.30;100.00;100518.63;5076788;28;20402;-72
2022/10/14 05:49:04;;;;;;;11.02;5.40;;;;;;;17.60;100.00;100452.91;5094656;28;20040;-73
2022/10/14 05:51:31;;;;;;;15.15;6.30;;;;;;;16.81;100.00;100496.94;5094675;28;20024;-73
2022/10/14 05:53:57;;;;;;;19.35;11.18;;;;;;;16.16;100.00;100461.31;5095037;28;20039;-73
2022/10/14 05:56:23;;;;;;;20.45;9.70;;;;;;;16.15;100.00;100444.22;5094955;28;20032;-73
2022/10/14 05:58:49;;;;;;;16.55;8.15;;;;;;;16.73;100.00;100486.16;5075976;28;20426;-72
2022/10/14 06:01:14;;;;;;;14.63;8.13;;;;;;;16.68;100.00;100488.94;5076173;28;20039;-73
2022/10/14 06:03:39;;;;;;;23.42;11.45;;;;;;;16.54;100.00;100486.13;5094612;28;20024;-72
2022/10/14 06:06:05;;;;;;;13.65;6.63;;;;;;;17.10;100.00;100488.72;5094755;28;20105;-72
2022/10/14 06:08:31;;;;;;;8.80;4.10;;;;;;;16.94;100.00;100426.94;5076137;28;20429;-73
2022/10/14 06:10:56;;;;;;;10.73;4.00;;;;;;;17.06;100.00;100480.31;5094380;28;20035;-74
2022/10/14 06:13:22;;;;;;;10.10;3.80;;;;;;;16.71;100.00;100401.50;5094657;28;20542;-75
2022/10/14 06:15:47;;;;;;;7.22;2.70;;;;;;;17.27;100.00;100484.44;5094460;28;20687;-73
2022/10/14 06:18:13;;;;;;;6.60;1.88;;;;;;;17.23;100.00;100489.81;5094040;28;20032;-73
2022/10/14 06:20:38;;;;;;;5.70;2.08;;;;;;;17.23;100.00;100494.97;5075642;28;20036;-75
2022/10/14 06:23:04;;;;;;;10.93;2.50;;;;;;;17.39;100.00;100433.38;5094415;28;20035;-74
2022/10/14 06:25:30;;;;;;;5.53;2.03;;;;;;;17.50;100.00;100485.97;5075981;28;20028;-73
2022/10/14 06:28:05;;;;;;;8.52;2.30;;;;;;;17.30;100.00;100414.91;5076171;28;20028;-73
2022/10/14 06:30:31;;;;;;;6.88;2.38;;;;;;;17.74;100.00;100429.94;5075909;28;20028;-73
2022/10/14 06:32:57;;;;;;;7.95;1.80;;;;;;;17.35;100.00;100463.53;5094060;28;20478;-73
2022/10/14 06:35:22;;;;;;;5.85;1.42;;;;;;;17.08;100.00;100428.84;5094183;28;20035;-74
2022/10/14 06:37:47;;;;;;;5.70;1.70;;;;;;;17.78;100.00;100437.41;5093797;28;20028;-73
2022/10/14 06:40:13;;;;;;;5.70;1.35;;;;;;;17.73;100.00;100425.69;5075559;28;20077;-73
2022/10/14 06:42:38;;;;;;;7.03;1.40;;;;;;;18.06;100.00;100485.75;5093369;28;20031;-73
2022/10/14 06:45:05;;;;;;;3.47;1.25;;;;;;;18.59;100.00;100491.56;5093854;28;20024;-72
2022/10/14 06:47:31;;;;;;;5.07;1.20;;;;;;;17.80;100.00;100432.19;5075872;28;20024;-72
2022/10/14 06:49:57;;;;;;;4.90;1.60;;;;;;;18.20;100.00;100484.13;5093390;28;20028;-73
2022/10/14 06:52:22;;;;;;;3.28;1.58;;;;;;;18.25;100.00;100422.09;5093828;28;20118;-73
2022/10/14 06:54:48;;;;;;;3.65;1.45;;;;;;;18.46;100.00;100480.22;5093671;28;20051;-73
2022/10/14 06:57:14;;;;;;;4.50;1.33;;;;;;;18.80;100.00;100476.69;5093586;28;20098;-72
2022/10/14 06:59:39;;;;;;;5.15;1.52;;;;;;;18.45;100.00;100473.44;5093320;28;20027;-72
2022/10/14 07:02:04;;;;;;;5.50;1.50;;;;;;;18.43;100.00;100458.97;5075308;28;20111;-73
2022/10/14 07:04:30;;;;;;;2.53;1.30;;;;;;;18.07;100.00;100477.94;5075346;28;20028;-72
2022/10/14 07:06:57;;;;;;;3.63;1.45;;;;;;;18.55;100.00;100433.41;5093167;28;20035;-73
2022/10/14 07:09:23;;;;;;;4.05;1.60;;;;;;;18.76;100.00;100467.47;5093450;28;20055;-73
2022/10/14 07:11:48;;;;;;;5.72;1.80;;;;;;;18.57;100.00;100474.53;5093105;28;20078;-72
2022/10/14 07:14:13;;;;;;;6.65;1.80;;;;;;;18.31;100.00;100469.88;5093144;28;20035;-74
2022/10/14 07:16:42;;;;;;;3.35;1.40;;;;;;;18.71;100.00;100474.63;5092861;28;20059;-73
2022/10/14 07:19:07;;;;;;;4.15;1.70;;;;;;;18.76;100.00;100468.31;5093278;28;20032;-73
2022/10/14 07:21:32;;;;;;;5.10;1.80;;;;;;;18.57;100.00;100420.44;5093036;28;20409;-73
2022/10/14 07:23:58;;;;;;;5.28;1.65;;;;;;;18.64;100.00;100466.38;5074481;28;20396;-73
2022/10/14 07:26:23;;;;;;;2.92;1.60;;;;;;;17.85;100.00;100414.78;5074917;28;20032;-73
2022/10/14 07:28:49;;;;;;;3.30;1.70;;;;;;;18.39;100.00;100473.72;5092952;28;20028;-73
2022/10/14 07:31:14;;;;;;;3.28;1.58;;;;;;;19.12;100.00;100465.47;5073833;28;20110;-73
2022/10/14 07:33:40;;;;;;;3.72;1.58;;;;;;;19.01;100.00;100419.66;5092612;28;20055;-73
2022/10/14 07:36:09;;;;;;;4.32;1.60;;;;;;;19.20;100.00;100483.09;5074595;28;20020;-76
2022/10/14 07:38:34;;;;;;;4.00;1.85;;;;;;;19.45;100.00;100460.22;5074462;28;20034;-75
2022/10/14 07:41:15;;;;;;;4.93;1.85;;;;;;;18.70;100.00;100467.78;5092169;28;20131;-73
2022/10/14 07:43:52;;;;;;;6.05;2.17;;;;;;;18.83;100.00;100425.03;5092664;28;20721;-73
2022/10/14 07:46:31;;;;;;;5.35;1.92;;;;;;;19.40;100.00;100431.28;5092136;28;20040;-73
2022/10/14 07:49:02;;;;;;;6.18;2.20;;;;;;;18.20;100.00;100418.97;5074336;28;20596;-73
2022/10/14 07:51:29;;;;;;;7.82;2.40;;;;;;;18.42;100.00;100409.16;5092641;28;20071;-73
2022/10/14 07:53:57;;;;;;;5.82;1.70;;;;;;;18.72;100.00;100465.97;5092527;28;20500;-73
2022/10/14 07:56:22;;;;;;;5.35;2.10;;;;;;;18.25;100.00;100457.31;5092668;28;20067;-73
2022/10/14 07:58:48;;;;;;;5.82;2.30;;;;;;;18.48;100.00;100421.75;5074280;28;20055;-73
2022/10/14 08:01:15;;;;;;;7.35;2.17;;;;;;;18.78;100.00;100420.09;5091966;28;20031;-73
2022/10/14 08:03:42;;;;;;;6.93;2.70;;;;;;;18.97;100.00;100445.72;5074126;28;20497;-72
2022/10/14 08:06:08;;;;;;;6.20;2.50;;;;;;;18.41;100.00;100401.53;5092235;28;20032;-73
2022/10/14 08:08:34;;;;;;;4.57;2.30;;;;;;;18.73;100.00;100410.97;5073603;28;20031;-75
2022/10/14 08:11:12;;;;;;;4.70;2.40;;;;;;;19.00;100.00;100402.56;5073443;28;20049;-74
2022/10/14 08:13:39;;;;;;;7.18;2.83;;;;;;;19.87;100.00;100443.09;5092402;28;20047;-74
2022/10/14 08:16:26;;;;;;;6.93;2.78;;;;;;;18.95;100.00;100445.81;5073907;28;20040;-76
2022/10/14 08:18:52;;;;;;;6.63;3.00;;;;;;;18.76;100.00;100445.13;5073284;28;20024;-74
2022/10/14 08:21:19;;;;;;;5.28;2.45;;;;;;;18.54;100.00;100420.63;5073604;28;20039;-74
2022/10/14 08:23:45;;;;;;;6.07;2.97;;;;;;;18.17;100.00;100427.66;5073814;28;20034;-76
2022/10/14 08:26:18;;;;;;;4.07;2.70;;;;;;;18.40;100.00;100452.19;5092008;28;20085;-76
2022/10/14 08:28:44;;;;;;;5.15;2.80;;;;;;;18.40;100.00;100412.75;5091647;28;20036;-74
2022/10/14 08:31:09;;;;;;;9.45;3.10;;;;;;;18.29;100.00;100443.38;5072811;28;20028;-80
2022/10/14 08:33:34;;;;;;;5.80;2.90;;;;;;;17.79;100.00;100369.63;5072925;28;20032;-74
2022/10/14 08:36:00;;;;;;;5.78;3.03;;;;;;;18.28;100.00;100403.09;5090708;28;20490;-75
2022/10/14 08:38:25;;;;;;;7.60;3.28;;;;;;;18.58;100.00;100417.78;5091878;28;20084;-74
2022/10/14 08:41:21;;;;;;;6.07;3.10;;;;;;;18.51;100.00;100447.34;5091770;28;20101;-74
2022/10/14 08:44:01;;;;;;;7.68;3.08;;;;;;;19.24;100.00;100443.34;5091509;28;20173;-74
2022/10/14 08:46:37;;;;;;;6.28;3.30;;;;;;;19.01;100.00;100416.28;5091554;28;20028;-73
2022/10/14 08:49:24;;;;;;;7.97;2.90;;;;;;;19.47;100.00;100440.34;5091579;28;20052;-74
2022/10/14 08:52:09;;;;;;;9.70;3.10;;;;;;;19.63;100.00;100420.50;5091862;28;20035;-73
2022/10/14 08:54:44;;;;;;;7.75;3.30;;;;;;;20.00;100.00;100435.47;5091504;28;20081;-72
2022/10/14 08:57:19;;;;;;;5.93;3.13;;;;;;;18.93;100.00;100388.38;5091564;28;20111;-72
2022/10/14 08:59:45;;;;;;;10.93;5.45;;;;;;;19.34;100.00;100377.47;5091272;28;20056;-73
2022/10/14 09:02:49;;;;;;;7.43;4.07;;;;;;;19.40;100.00;100439.00;5091673;28;20067;-73
2022/10/14 09:05:17;;;;;;;7.35;3.53;;;;;;;19.41;100.00;100371.06;5087008;28;20044;-73
2022/10/14 09:07:44;;;;;;;7.65;4.60;;;;;;;19.27;100.00;100389.03;5091368;28;20177;-75
2022/10/14 09:10:36;;;;;;;7.68;4.13;;;;;;;18.94;100.00;100391.75;5091323;28;20032;-73
2022/10/14 09:13:22;;;;;;;6.40;3.03;;;;;;;19.11;100.00;100429.47;5090748;28;20051;-73
2022/10/14 09:15:55;;;;;;;6.55;3.33;;;;;;;19.05;100.00;100376.53;5091284;28;20131;-73
2022/10/14 09:18:29;;;;;;;10.45;4.43;;;;;;;19.88;100.00;100421.53;5073487;28;20028;-73
2022/10/14 09:20:56;;;;;;;5.18;3.55;;;;;;;19.87;100.00;100419.88;5072964;28;20040;-73
2022/10/14 09:23:23;;;;;;;7.38;3.38;;;;;;;19.60;100.00;100416.31;5091370;28;20135;-72
2022/10/14 09:25:51;;;;;;;13.43;4.25;;;;;;;19.53;100.00;100427.91;5090898;28;20127;-73
2022/10/14 09:28:18;;;;;;;10.85;3.72;;;;;;;19.04;100.00;100416.09;5073039;28;20470;-73
2022/10/14 09:30:44;;;;;;;6.60;3.42;;;;;;;18.87;100.00;100414.47;5073280;28;20051;-73
2022/10/14 09:33:16;;;;;;;9.52;4.05;;;;;;;19.98;100.00;100411.50;5091400;28;20513;-72
2022/10/14 09:35:42;;;;;;;6.18;3.45;;;;;;;19.58;100.00;100383.78;5091247;28;20043;-73
2022/10/14 09:38:11;;;;;;;7.32;3.20;;;;;;;20.26;100.00;100377.13;5090752;28;20036;-72
2022/10/14 09:40:59;;;;;;;8.10;4.10;;;;;;;20.23;100.00;100422.03;5090643;28;20051;-71
2022/10/14 09:43:25;;;;;;;6.88;3.58;;;;;;;19.31;100.00;100375.06;5090895;28;20058;-72
2022/10/14 09:45:55;;;;;;;6.78;3.40;;;;;;;19.58;100.00;100419.91;5090676;28;20028;-72
2022/10/14 09:48:56;;;;;;;9.00;3.35;;;;;;;19.79;100.00;100410.91;5072641;28;20082;-72
2022/10/14 09:51:28;;;;;;;11.38;3.70;;;;;;;20.87;100.00;100407.72;5039633;28;20044;-73
2022/10/14 09:53:56;;;;;;;7.68;3.25;;;;;;;19.81;100.00;100354.88;5072889;28;20040;-73
2022/10/14 09:56:33;;;;;;;5.03;3.50;;;;;;;20.33;100.00;100332.75;5075621;28;20449;-73
2022/10/14 09:59:00;;;;;;;8.00;3.95;;;;;;;20.47;100.00;100384.38;5094736;28;20478;-74
2022/10/14 10:01:37;;;;;;;9.10;3.90;;;;;;;20.05;100.00;100388.69;5094579;28;20054;-73
2022/10/14 10:04:29;;;;;;;8.25;4.00;;;;;;;20.15;100.00;100395.81;5094724;28;20110;-72
2022/10/14 10:06:55;;;;;;;11.52;4.20;;;;;;;20.20;100.00;100398.16;5094164;28;20032;-72
2022/10/14 10:09:21;;;;;;;9.70;4.70;;;;;;;19.95;100.00;100333.41;5094538;28;20173;-74
2022/10/14 10:11:47;;;;;;;11.90;4.15;;;;;;;19.97;100.00;100380.59;5094477;28;20040;-75
2022/10/14 10:14:23;;;;;;;7.15;4.25;;;;;;;20.19;100.00;100330.19;5094276;28;20031;-72
2022/10/14 10:17:11;;;;;;;10.68;3.92;;;;;;;20.39;100.00;100349.59;5076104;28;20035;-73
2022/10/14 10:19:36;;;;;;;5.90;3.67;;;;;;;20.87;100.00;100395.63;5076265;28;20482;-73
2022/10/14 10:22:32;;;;;;;3.95;3.20;;;;;;;20.40;100.00;100388.25;5076178;28;20169;-73
2022/10/14 10:25:01;;;;;;;9.13;3.83;;;;;;;20.39;100.00;100381.44;5073955;28;20131;-73
2022/10/14 10:27:30;;;;;;;7.47;3.90;;;;;;;20.72;100.00;100379.31;5076160;28;20541;-73
2022/10/14 10:30:13;;;;;;;6.32;4.18;;;;;;;20.67;100.00;100375.38;5093911;28;20195;-73
2022/10/14 10:32:43;;;;;;;5.40;3.63;;;;;;;21.02;100.00;100367.97;5094021;28;20514;-72
2022/10/14 10:35:36;;;;;;;6.88;4.32;;;;;;;20.54;100.00;100371.91;5075521;28;20417;-72
2022/10/14 10:38:11;;;;;;;8.43;4.93;;;;;;;20.25;100.00;100373.69;5093751;28;20110;-71
2022/10/14 10:41:17;;;;;;;9.15;4.60;;;;;;;20.22;100.00;100363.56;5075462;28;20072;-73
2022/10/14 10:44:25;;;;;;;8.18;4.25;;;;;;;20.42;100.00;100367.50;5092164;28;20063;-72
2022/10/14 10:47:09;;;;;;;10.27;4.10;;;;;;;20.72;100.00;100368.97;5075033;28;20131;-73
2022/10/14 10:49:53;;;;;;;5.97;4.40;;;;;;;20.66;100.00;100359.03;5075256;28;20028;-71
2022/10/14 10:52:37;;;;;;;7.65;4.45;;;;;;;20.94;100.00;100363.25;5075386;28;20028;-72
2022/10/14 10:55:11;;;;;;;11.75;4.75;;;;;;;20.95;100.00;100356.34;5093544;28;20055;-72
2022/10/14 10:57:55;;;;;;;10.35;4.40;;;;;;;20.36;100.00;100257.63;5093521;28;20474;-72
2022/10/14 11:00:22;;;;;;;12.52;4.45;;;;;;;20.34;100.00;100251.72;5093560;28;20024;-78
2022/10/14 11:02:57;;;;;;;15.00;4.70;;;;;;;20.29;100.00;100353.69;5075121;28;20110;-74
2022/10/14 11:06:01;;;;;;;6.85;4.68;;;;;;;20.43;100.00;100339.00;5092853;28;20039;-73
2022/10/14 11:14:46;;;;;;;18.02;5.38;;;;;;;19.79;100.00;100349.81;5092818;28;20090;-73
2022/10/14 11:17:34;;;;;;;15.52;5.68;;;;;;;19.42;100.00;100309.06;5075226;28;20141;-73
2022/10/14 11:20:21;;;;;;;12.65;5.07;;;;;;;19.78;100.00;100342.16;5074958;28;20028;-74
2022/10/14 11:23:05;;;;;;;9.48;4.80;;;;;;;19.18;100.00;100278.69;5074852;28;20035;-73
2022/10/14 11:25:54;;;;;;;11.32;4.75;;;;;;;19.42;100.00;100334.00;5075192;28;20367;-73
2022/10/14 11:29:01;;;;;;;8.63;5.47;;;;;;;19.57;100.00;100333.13;5074639;28;20090;-73
2022/10/14 11:31:27;;;;;;;8.45;4.95;;;;;;;19.48;100.00;100326.75;5054595;28;20044;-73
2022/10/14 11:34:13;;;;;;;8.07;5.13;;;;;;;19.38;100.00;100338.53;5093123;28;20020;-77
2022/10/14 11:37:09;;;;;;;6.60;4.60;;;;;;;19.10;100.00;100275.72;5092766;28;20062;-74